PANCCYRL

Guest
Details From PANC - Ted Stevens Anchorage Intl
To CYRL - Red Lake
Flight Number -
Tags Generated
Created
Modified
Stats Distance 1,911 nm / 3,539 km
Max Altitude 0 ft / 0 m
Waypoints 4
Social Downloads 0
Likes 0
Share VATSIM

Download

Looking for another format? Having issues loading an existing format? Contact us
Advertisement - Login to hide

Notes

Generated

Route

PANC OMSUN RL CYRL

ID Type Via Altitude Latitude Longitude Leg Dist Tot Dist Heading (true) Name
O PANC APT - 0 ft / 0 m 61.16976˚ -150.00833˚ - 0 nm - -
OMSUN FIX - 0 ft / 0 m 61.33639˚ -141.00000˚ 260 nm 260 nm 84° / 92° -
RL NDB - 0 ft / 0 m 51.06097˚ -93.78483˚ 1649 nm 1909 nm 90° / 130° RED LAKE NDB
O CYRL APT - 0 ft / 0 m 51.06583˚ -93.80389˚ 0 nm 1910 nm 292° / 292° -

Altitude Profile

Advertisement - Login to hide

Weather


0- 5 10 15 20 25 30 35+ Temperature / ° C

Clouds and Precipitation
Forecast for 2017-12-13 00:00 UTC. Updated 35 minutes ago

Ground ~20,000 ft ~40,000 ft Winds

PANC

Details ICAO PANC (ANC)
Name Ted Stevens Anchorage Intl
Region USA (Alaska)
Timezone America/Anchorage (UTC-9.0)
Stats Elevation 152 ft / 46 m (AMSL)
Location 61.174111° -149.995982°
Runways 3
Magnetic Variation 16.223° E

METAR

PANC 122253Z 14017G28KT 10SM OVC110 06/00 A2977

Decode

TAF

TAF PANC 122334Z 1300/1406 16015G25KT P6SM BKN100 FM130700 VRB04KT P6SM BKN080 WS020/13030KT FM131200 31008KT P6SM VCSH SCT045 BKN060 WS020/11040KT FM132000 15016G26KT P6SM SCT050 BKN090 FM140300 18008KT P6SM SCT070 BKN120

Decode

Departure Runways

ID Width Length Bearing (true) Bearing (mag) Surface Threshold Offset Overrun Length
07L 151 ft / 46 m 10,563 ft / 3,220 m 89.88° 73.66° Asphalt 0 ft / 0 m 381 ft / 116 m
07R 151 ft / 46 m 10,862 ft / 3,311 m 89.85° 73.63° Asphalt 0 ft / 0 m 499 ft / 152 m
15 151 ft / 46 m 11,563 ft / 3,524 m 164.90° 148.68° Asphalt 200 ft / 61 m 220 ft / 67 m
25L 151 ft / 46 m 10,862 ft / 3,311 m 269.91° 253.69° Asphalt 0 ft / 0 m 151 ft / 46 m
25R 151 ft / 46 m 10,563 ft / 3,220 m 269.94° 253.72° Asphalt 0 ft / 0 m 381 ft / 116 m
33 151 ft / 46 m 11,563 ft / 3,524 m 344.91° 328.69° Asphalt 892 ft / 272 m 449 ft / 137 m

CYRL

Details ICAO CYRL (YRL)
Name RED LAKE
Region Canada
Timezone America/Winnipeg (UTC-6.0)
Stats Elevation 1,265 ft / 386 m (AMSL)
Location 51.066944° -93.793055°
Runways 1
Magnetic Variation 0.192° W

METAR

CYRL 122300Z 12009KT 10SM -SN OVC030 M15/M18 A2974 RMK SC8 PRESFR SLP114

Decode

TAF

TAF CYRL 121938Z 1220/1303 11008KT P6SM SCT030 BKN070 TEMPO 1220/1224 4SM -SN BKN020 OVC070 FM130000 14010KT 2SM -SN SCT008 OVC015 TEMPO 1300/1303 6SM -SN RMK NXT FCST WILL BE ISSUED AT 131145Z

Decode

Destination Runways

ID Width Length Bearing (true) Bearing (mag) Surface Threshold Offset Overrun Length
08 150 ft / 46 m 5,034 ft / 1,534 m 80.72° 80.91° Asphalt 0 ft / 0 m 0 ft / 0 m
26 150 ft / 46 m 5,034 ft / 1,534 m 260.74° 260.93° Asphalt 0 ft / 0 m 0 ft / 0 m